DuBois Regional Airport
KDUJ : now visible

Airfield :











YOU CAN JOIN US ON...

 
LOGIN :

Register | Disclaimer

   EN    FR    IT 

 









Legend :    VFR   Marginal VFR   IFR   Intensive IFR   Very Intensive IFR
Visi :
Ceiling :
>= 8 km
>= 3000ft
5 to 8 km
1000 to 3000 ft
1500m to 5 km
500 to 1000 ft
800 to 1500m
200 to 500 ft
< 800m
< 200 ft
Symbols :   Thunderstorms  Fog  Heavy snow  Heavy precipitations  Wind > 20 kt






- Airport Elevation : 1817 ft
- IATA code : DUJ


KDUJ - DuBois Regional

CURRENT METAR :
  • 042253Z AUTO 29007KT 10SM OVC100 19/17 A2991 RMK AO2 PK WND 31027/2201 RAB09E31 SLP119 P0001 T01940172

EXPIRED METARs :
  • 042153Z AUTO 26015G22KT 10SM SCT040 BKN110 24/16 A2988 RMK AO2 SLP107 T02390156
  • 042053Z AUTO 32008KT 10SM BKN041 26/15 A2986 RMK AO2 SLP098 60011 T02560150 53006

TAF KDUJ
Valid from the 04 at 18:00 until the 05 at 18:00 UTC


041725Z 0418/0518 29008KT P6SM VCSH SCT035 BKN050
TEMPO 0420/0424 4SM SHRA BKN035
FM050200 26004KT P6SM VCSH SCT060
FM050900 25003KT 4SM BR SCT001 BKN005
FM051300 26004KT P6SM BKN010
FM051500 26006KT P6SM BKN035
KZOB FIR / North America



MET'MAP, your aeronautical weather chart ! - Copyright ORBIFLY December 2007 - Disclaimer

ORBIFLY MET'MAP TEAM :

Programming & Development : Alexandra Zaïnal
Concept & original design : Baudouin d'Aumeries
Assistance for programming : Marc-Olivier Méhu
Technical & hardware support : Manuel Goepfert

Contact : metmap@orbifly.com




SOURCES & CREDITS :

   NOAA       Earth
Advisory